Time;durP1;ratioP1;P1;durP2;ratioP2;P2;SDS_P1;SDS_P2;PMS_P1;PMS_P2;Temp;Humidity;BMP_temperature;BMP_pressure;BME280_temperature;BME280_humidity;BME280_pressure;Samples;Min_cycle;Max_cycle;Signal;HPM_P1;HPM_P2
2022/09/29 00:02:06;;;;;;;8.63;4.47;;;;;;;19.81;70.16;98497.47;4991848;28;20199;-67
2022/09/29 00:04:33;;;;;;;4.43;4.10;;;;;;;19.75;70.20;98501.28;4972352;28;20227;-66
2022/09/29 00:06:59;;;;;;;4.83;4.40;;;;;;;19.76;70.50;98508.28;4972470;28;20667;-66
2022/09/29 00:09:27;;;;;;;5.80;3.90;;;;;;;19.77;70.50;98513.38;4973918;28;20227;-65
2022/09/29 00:11:55;;;;;;;5.90;3.80;;;;;;;19.74;70.44;98502.38;4972889;28;20207;-66
2022/09/29 00:14:22;;;;;;;7.10;4.90;;;;;;;19.72;71.50;98494.56;4974193;28;20419;-65
2022/09/29 00:16:49;;;;;;;5.60;4.53;;;;;;;19.72;70.96;98488.34;4973788;28;20549;-66
2022/09/29 00:19:16;;;;;;;4.80;4.40;;;;;;;19.74;71.05;98491.59;4974390;28;20282;-65
2022/09/29 00:21:43;;;;;;;5.77;3.90;;;;;;;19.73;70.29;98490.78;4973841;28;20623;-66
2022/09/29 00:24:10;;;;;;;5.77;4.67;;;;;;;19.73;70.72;98490.00;4973527;28;20203;-66
2022/09/29 00:26:38;;;;;;;5.57;4.27;;;;;;;19.71;71.33;98486.75;4972886;28;20679;-65
2022/09/29 00:29:04;;;;;;;8.00;4.97;;;;;;;19.71;70.93;98475.97;4973163;28;20231;-64
2022/09/29 00:31:33;;;;;;;6.73;4.10;;;;;;;19.74;71.26;98486.19;4972230;28;20206;-65
2022/09/29 00:34:00;;;;;;;5.00;4.20;;;;;;;19.76;70.88;98475.94;4973364;28;20258;-66
2022/09/29 00:36:28;;;;;;;5.57;4.00;;;;;;;19.77;70.35;98474.88;4973551;28;20194;-67
2022/09/29 00:38:55;;;;;;;8.23;4.23;;;;;;;19.78;70.00;98473.78;4973737;28;20242;-65
2022/09/29 00:41:24;;;;;;;9.17;3.90;;;;;;;19.80;70.18;98468.91;4974015;28;20243;-67
2022/09/29 00:43:58;;;;;;;6.20;4.40;;;;;;;19.78;69.81;98466.50;4974072;28;20668;-65
2022/09/29 00:46:32;;;;;;;7.20;3.93;;;;;;;19.80;69.13;98461.63;4973703;28;20262;-65
2022/09/29 00:49:03;;;;;;;4.50;4.07;;;;;;;19.84;69.31;98470.78;4973952;28;20207;-66
2022/09/29 00:51:33;;;;;;;5.37;3.93;;;;;;;19.78;69.05;98465.69;4974553;28;20195;-65
2022/09/29 00:54:01;;;;;;;6.90;3.80;;;;;;;19.74;69.61;98467.34;4973731;28;20231;-64
2022/09/29 00:56:30;;;;;;;4.30;3.90;;;;;;;19.77;69.81;98480.25;4973522;28;20258;-65
2022/09/29 00:59:01;;;;;;;6.17;4.67;;;;;;;19.70;70.07;98485.97;4974223;28;20221;-65
2022/09/29 01:01:31;;;;;;;7.90;3.90;;;;;;;19.57;70.33;98480.38;4973463;28;20242;-64
2022/09/29 01:04:01;;;;;;;4.63;4.07;;;;;;;19.47;70.13;98475.03;4973575;28;20235;-64
2022/09/29 01:06:34;;;;;;;4.03;3.73;;;;;;;19.47;70.30;98478.53;4973732;28;20623;-65
2022/09/29 01:09:04;;;;;;;4.13;3.83;;;;;;;19.46;70.42;98473.44;4972501;28;20213;-64
2022/09/29 01:11:31;;;;;;;6.90;3.77;;;;;;;19.46;70.79;98478.81;4973653;28;20192;-64
2022/09/29 01:14:03;;;;;;;8.80;4.10;;;;;;;19.39;70.95;98478.31;4972469;28;20255;-65
2022/09/29 01:16:31;;;;;;;4.67;3.73;;;;;;;19.31;71.18;98492.34;4972494;28;20195;-64
2022/09/29 01:18:59;;;;;;;5.03;3.60;;;;;;;19.28;70.91;98491.00;4972221;28;20708;-65
2022/09/29 01:21:35;;;;;;;4.97;4.03;;;;;;;19.14;71.22;98506.13;4972606;28;20261;-64
2022/09/29 01:24:47;;;;;;;6.77;4.43;;;;;;;19.05;72.22;98505.09;4972747;28;20263;-66
2022/09/29 01:27:24;;;;;;;7.60;4.90;;;;;;;19.02;72.76;98500.25;4970213;28;20197;-65
2022/09/29 01:30:12;;;;;;;9.43;4.40;;;;;;;18.69;73.61;98505.44;4971940;28;20263;-66
2022/09/29 01:33:16;;;;;;;9.60;4.33;;;;;;;18.56;74.62;98511.38;4972762;28;20189;-65
2022/09/29 01:35:52;;;;;;;4.30;4.00;;;;;;;18.31;74.64;98516.75;4961360;28;20253;-66
2022/09/29 01:38:39;;;;;;;4.87;3.50;;;;;;;18.18;75.55;98525.34;4970874;28;20629;-66
2022/09/29 01:41:12;;;;;;;4.63;3.50;;;;;;;18.00;76.60;98523.16;4970754;28;20242;-66
2022/09/29 01:43:46;;;;;;;3.30;3.00;;;;;;;17.76;77.45;98501.38;4971513;28;20192;-65
2022/09/29 01:46:19;;;;;;;3.30;3.00;;;;;;;17.70;78.13;98542.75;4971647;28;20714;-68
2022/09/29 01:48:51;;;;;;;3.67;3.30;;;;;;;17.59;79.19;98545.63;4971843;28;20333;-66
2022/09/29 01:51:23;;;;;;;3.73;3.43;;;;;;;17.67;79.51;98555.88;4973091;28;20715;-65
2022/09/29 01:53:53;;;;;;;4.77;3.67;;;;;;;17.77;79.05;98569.34;4971953;28;20235;-66
2022/09/29 01:56:26;;;;;;;4.07;3.77;;;;;;;17.63;79.19;98565.53;4969054;28;20662;-66
2022/09/29 01:58:56;;;;;;;4.10;3.70;;;;;;;17.43;80.24;98544.00;4971914;28;20200;-66
2022/09/29 02:01:31;;;;;;;4.30;4.00;;;;;;;17.58;79.98;98560.97;4968777;28;20262;-65
2022/09/29 02:04:04;;;;;;;4.40;4.00;;;;;;;17.64;79.47;98567.16;4970084;28;20187;-65
2022/09/29 02:06:36;;;;;;;4.33;3.93;;;;;;;17.63;79.01;98562.84;4970232;28;20246;-66
2022/09/29 02:09:08;;;;;;;4.67;4.07;;;;;;;17.54;79.19;98545.63;4971350;28;20215;-66
2022/09/29 02:11:40;;;;;;;4.53;4.13;;;;;;;17.46;79.97;98546.13;4971392;28;20250;-66
2022/09/29 02:14:14;;;;;;;4.27;3.87;;;;;;;17.39;79.27;98554.41;4972556;28;20196;-66
2022/09/29 02:16:49;;;;;;;4.90;4.50;;;;;;;17.06;80.54;98544.06;4971773;28;20187;-66
2022/09/29 02:19:20;;;;;;;4.47;4.07;;;;;;;17.15;81.02;98549.75;4970588;28;20190;-66
2022/09/29 02:21:47;;;;;;;6.77;4.17;;;;;;;17.10;80.95;98549.69;4970778;28;20191;-66
2022/09/29 02:24:15;;;;;;;5.57;4.00;;;;;;;17.14;81.31;98556.97;4970343;28;20667;-65
2022/09/29 02:26:44;;;;;;;4.10;3.70;;;;;;;17.14;81.16;98561.53;4970257;28;20675;-66
2022/09/29 02:29:11;;;;;;;6.10;4.70;;;;;;;17.20;80.75;98565.84;4971903;28;20397;-65
2022/09/29 02:31:39;;;;;;;4.13;3.63;;;;;;;17.02;80.84;98547.53;4969721;28;20203;-65
2022/09/29 02:34:08;;;;;;;6.97;3.40;;;;;;;17.11;81.55;98548.66;4972048;28;20195;-66
2022/09/29 02:36:44;;;;;;;3.77;3.47;;;;;;;17.07;81.16;98556.38;4971329;28;20257;-66
2022/09/29 02:39:17;;;;;;;5.27;3.37;;;;;;;16.76;81.96;98548.41;4970571;28;20193;-65
2022/09/29 02:41:56;;;;;;;3.43;3.13;;;;;;;16.76;82.80;98549.25;4972361;28;20192;-66
2022/09/29 02:44:37;;;;;;;4.37;3.57;;;;;;;16.65;82.64;98566.31;4971466;28;20242;-66
2022/09/29 02:47:27;;;;;;;3.47;3.17;;;;;;;16.67;82.95;98563.38;4971371;28;20214;-66
2022/09/29 02:50:16;;;;;;;4.50;3.10;;;;;;;16.77;82.61;98571.50;4971538;28;20604;-66
2022/09/29 02:52:54;;;;;;;5.13;2.97;;;;;;;16.86;83.08;98560.03;4970269;28;20287;-66
2022/09/29 02:55:30;;;;;;;3.10;2.90;;;;;;;17.01;82.05;98572.72;4971605;28;20195;-66
2022/09/29 02:58:02;;;;;;;4.10;3.40;;;;;;;17.06;81.42;98573.56;4971359;28;20195;-66
2022/09/29 03:00:30;;;;;;;3.60;3.20;;;;;;;16.93;81.70;98565.97;4971790;28;20269;-66
2022/09/29 03:02:56;;;;;;;5.57;3.27;;;;;;;16.76;82.40;98572.56;4971805;28;20199;-66
2022/09/29 03:05:23;;;;;;;3.63;3.30;;;;;;;16.43;83.29;98548.72;4970202;28;20668;-66
2022/09/29 03:07:51;;;;;;;3.73;3.50;;;;;;;16.63;83.17;98573.81;4971413;28;20199;-66
2022/09/29 03:10:18;;;;;;;5.53;3.30;;;;;;;16.79;82.16;98577.41;4971444;28;20223;-66
2022/09/29 03:12:46;;;;;;;4.27;3.23;;;;;;;16.88;82.01;98573.19;4971278;28;20269;-65
2022/09/29 03:15:13;;;;;;;3.67;3.17;;;;;;;16.92;81.35;98575.09;4971716;28;20737;-65
2022/09/29 03:17:41;;;;;;;3.10;2.80;;;;;;;16.85;81.34;98566.47;4971917;28;20202;-66
2022/09/29 03:20:08;;;;;;;4.40;2.70;;;;;;;16.80;82.44;98570.97;4971373;28;20772;-66
2022/09/29 03:22:35;;;;;;;3.57;2.70;;;;;;;16.78;81.94;98560.50;4971100;28;20339;-66
2022/09/29 03:25:04;;;;;;;5.97;4.23;;;;;;;16.72;81.56;98531.22;4971759;28;20201;-66
2022/09/29 03:27:32;;;;;;;10.87;3.10;;;;;;;16.92;81.04;98550.97;4970439;28;20202;-65
2022/09/29 03:29:58;;;;;;;3.67;3.30;;;;;;;16.89;80.68;98553.31;4967783;28;20646;-66
2022/09/29 03:32:25;;;;;;;5.80;3.10;;;;;;;16.86;80.56;98553.88;4972676;28;20576;-66
2022/09/29 03:34:52;;;;;;;6.53;3.13;;;;;;;16.82;81.39;98563.50;4973039;28;20254;-66
2022/09/29 03:37:18;;;;;;;4.83;3.87;;;;;;;16.94;80.89;98566.78;4973554;28;20557;-66
2022/09/29 03:39:45;;;;;;;5.20;3.50;;;;;;;16.97;80.49;98558.22;4975022;28;20202;-66
2022/09/29 03:42:13;;;;;;;4.60;3.57;;;;;;;17.02;80.50;98558.25;4974038;28;20262;-65
2022/09/29 03:44:40;;;;;;;3.47;3.20;;;;;;;17.09;80.31;98559.63;4973253;28;20203;-67
2022/09/29 03:47:07;;;;;;;7.27;3.33;;;;;;;17.15;79.87;98563.16;4973408;28;20234;-65
2022/09/29 03:49:34;;;;;;;6.83;3.60;;;;;;;17.19;79.89;98569.63;4971636;28;20769;-66
2022/09/29 03:52:01;;;;;;;3.40;3.10;;;;;;;17.19;79.97;98583.81;4973315;28;20270;-66
2022/09/29 03:54:28;;;;;;;5.33;3.50;;;;;;;17.02;80.06;98585.09;4972555;28;20195;-66
2022/09/29 03:56:54;;;;;;;5.07;3.63;;;;;;;17.01;80.29;98573.53;4973509;28;20279;-67
2022/09/29 03:59:23;;;;;;;9.97;3.90;;;;;;;16.95;80.19;98563.81;4973361;28;20265;-66
2022/09/29 04:01:49;;;;;;;6.27;3.60;;;;;;;17.06;80.46;98576.25;4972513;28;20188;-66
2022/09/29 04:04:16;;;;;;;3.63;3.23;;;;;;;17.12;80.07;98569.03;4973211;28;20206;-67
2022/09/29 04:06:43;;;;;;;6.70;4.37;;;;;;;17.16;80.30;98565.59;4986158;28;20261;-67
2022/09/29 04:09:09;;;;;;;12.87;4.60;;;;;;;17.23;79.72;98576.09;4994222;28;20282;-67
2022/09/29 04:11:36;;;;;;;13.30;4.90;;;;;;;17.18;80.22;98587.59;4991512;28;20674;-66
2022/09/29 04:14:03;;;;;;;8.60;4.13;;;;;;;17.06;80.31;98586.19;4993030;28;20191;-66
2022/09/29 04:16:32;;;;;;;7.63;3.70;;;;;;;17.01;81.02;98591.50;4992694;28;20264;-66
2022/09/29 04:18:58;;;;;;;14.40;4.40;;;;;;;17.04;80.84;98591.81;4991594;28;20275;-66
2022/09/29 04:21:25;;;;;;;17.73;4.73;;;;;;;17.13;80.73;98597.47;4978094;28;20233;-66
2022/09/29 04:23:52;;;;;;;14.60;4.53;;;;;;;17.15;80.45;98600.72;4973385;28;20203;-66
2022/09/29 04:26:19;;;;;;;6.17;4.37;;;;;;;17.14;80.61;98604.47;4973908;28;20657;-66
2022/09/29 04:28:46;;;;;;;5.67;4.13;;;;;;;17.10;80.34;98598.00;4973500;28;20203;-66
2022/09/29 04:31:13;;;;;;;8.47;4.70;;;;;;;17.24;79.99;98609.91;4971145;28;20198;-67
2022/09/29 04:33:41;;;;;;;10.07;5.80;;;;;;;17.30;79.59;98624.94;4972784;28;20191;-66
2022/09/29 04:36:08;;;;;;;9.57;4.20;;;;;;;17.31;79.93;98627.38;4972195;28;20278;-67
2022/09/29 04:38:35;;;;;;;12.20;4.47;;;;;;;17.29;79.51;98636.75;4971377;28;20621;-67
2022/09/29 04:41:02;;;;;;;8.57;5.10;;;;;;;17.17;79.78;98631.59;4970416;28;20300;-67
2022/09/29 04:43:28;;;;;;;8.97;3.73;;;;;;;17.08;79.98;98653.81;4971580;28;20646;-67
2022/09/29 04:46:02;;;;;;;6.60;3.97;;;;;;;16.71;80.79;98635.03;4971005;28;20203;-67
2022/09/29 04:48:29;;;;;;;6.90;3.90;;;;;;;16.61;81.55;98652.91;4971330;28;20573;-67
2022/09/29 04:50:57;;;;;;;7.10;3.67;;;;;;;16.72;81.57;98665.31;4970516;28;20221;-67
2022/09/29 04:53:23;;;;;;;7.87;3.87;;;;;;;16.82;81.44;98652.00;4971341;28;20243;-66
2022/09/29 04:55:50;;;;;;;5.17;3.67;;;;;;;17.12;81.92;98641.50;4971599;28;20198;-66
2022/09/29 04:58:17;;;;;;;4.47;3.60;;;;;;;17.70;80.23;98643.97;4970970;28;20630;-66
2022/09/29 05:00:44;;;;;;;6.30;3.73;;;;;;;18.16;77.42;98645.75;4971195;28;20199;-67
2022/09/29 05:03:11;;;;;;;3.50;3.17;;;;;;;18.56;75.19;98645.88;4971621;28;20195;-67
2022/09/29 05:05:37;;;;;;;10.27;3.90;;;;;;;18.83;73.96;98655.28;4969356;28;20217;-65
2022/09/29 05:08:06;;;;;;;5.60;3.07;;;;;;;19.12;72.38;98666.31;4971397;28;20256;-66
2022/09/29 05:10:32;;;;;;;4.07;3.33;;;;;;;19.38;71.88;98660.66;4970978;28;20228;-65
2022/09/29 05:12:59;;;;;;;6.40;3.17;;;;;;;19.69;69.24;98678.34;4971783;28;20202;-65
2022/09/29 05:15:26;;;;;;;3.93;3.17;;;;;;;19.95;68.46;98681.75;4972102;28;20629;-66
2022/09/29 05:17:54;;;;;;;8.60;3.00;;;;;;;20.11;66.61;98669.88;4972589;28;20203;-65
2022/09/29 05:20:21;;;;;;;4.23;2.87;;;;;;;20.26;65.26;98686.75;4970480;28;20199;-67
2022/09/29 05:22:48;;;;;;;4.60;2.30;;;;;;;19.92;66.32;98683.13;4970750;28;20564;-66
2022/09/29 05:25:16;;;;;;;5.50;2.73;;;;;;;20.03;66.01;98667.72;4971176;28;20268;-67
2022/09/29 05:27:43;;;;;;;8.23;3.50;;;;;;;20.15;65.48;98670.91;4968490;28;20258;-66
2022/09/29 05:30:10;;;;;;;5.23;2.87;;;;;;;20.51;65.20;98680.44;4971864;28;20840;-65
2022/09/29 05:32:37;;;;;;;6.97;2.93;;;;;;;20.78;63.46;98686.16;4971010;28;20198;-65
2022/09/29 05:35:04;;;;;;;7.03;2.50;;;;;;;21.07;62.78;98684.34;4970990;28;20192;-64
2022/09/29 05:37:31;;;;;;;6.47;2.70;;;;;;;21.45;62.31;98679.94;4972097;28;20195;-65
2022/09/29 05:39:57;;;;;;;7.10;2.80;;;;;;;22.16;59.19;98675.34;4970175;28;20664;-67
2022/09/29 05:42:26;;;;;;;3.87;2.27;;;;;;;22.65;59.00;98668.47;4971931;28;20202;-65
2022/09/29 05:44:53;;;;;;;6.37;3.00;;;;;;;23.52;55.77;98683.81;4970528;28;20285;-66
2022/09/29 05:47:20;;;;;;;7.23;2.30;;;;;;;24.25;53.45;98692.69;4972247;28;20242;-65
2022/09/29 05:49:46;;;;;;;11.17;3.17;;;;;;;24.77;50.32;98688.56;4968833;28;20248;-67
2022/09/29 05:52:13;;;;;;;2.73;2.50;;;;;;;24.88;48.65;98682.59;4970379;28;20297;-64
2022/09/29 05:54:40;;;;;;;7.97;3.10;;;;;;;24.98;50.43;98675.31;4968848;28;20194;-67
2022/09/29 05:57:06;;;;;;;4.33;2.67;;;;;;;25.53;49.58;98673.91;4967885;28;20195;-65
2022/09/29 05:59:34;;;;;;;2.83;2.63;;;;;;;25.77;45.94;98666.19;4968318;28;20293;-65
2022/09/29 06:02:01;;;;;;;5.60;2.37;;;;;;;25.85;46.68;98654.53;4969393;28;20200;-68
2022/09/29 06:04:28;;;;;;;8.97;2.60;;;;;;;26.09;44.84;98654.94;4968720;28;20195;-69
2022/09/29 06:06:56;;;;;;;4.17;2.77;;;;;;;26.35;46.57;98658.50;4966981;28;20197;-69
2022/09/29 06:09:22;;;;;;;2.87;2.27;;;;;;;26.74;45.29;98650.25;4969904;28;20624;-69
2022/09/29 06:11:49;;;;;;;6.87;2.67;;;;;;;27.21;43.93;98652.78;4970520;28;20207;-70
2022/09/29 06:14:16;;;;;;;4.83;2.33;;;;;;;27.63;42.38;98657.28;4966758;28;20573;-70
2022/09/29 06:16:44;;;;;;;4.50;2.73;;;;;;;27.79;40.10;98649.34;4969282;28;20195;-72
2022/09/29 06:19:12;;;;;;;4.87;2.80;;;;;;;27.93;41.50;98630.84;4969390;28;20195;-66
2022/09/29 06:21:39;;;;;;;9.47;2.73;;;;;;;28.28;39.71;98629.50;4971178;28;20199;-72
2022/09/29 06:24:07;;;;;;;3.13;2.40;;;;;;;28.55;39.48;98639.94;4970000;28;20282;-66
2022/09/29 06:26:33;;;;;;;10.20;2.73;;;;;;;28.64;39.42;98641.47;4969268;28;20286;-68
2022/09/29 06:29:00;;;;;;;12.47;2.23;;;;;;;28.65;37.96;98642.25;4970751;28;20250;-71
2022/09/29 06:31:28;;;;;;;12.20;2.53;;;;;;;28.88;37.87;98649.00;4969103;28;20710;-67
2022/09/29 06:33:58;;;;;;;2.97;2.50;;;;;;;28.74;37.22;98643.78;4969925;28;20687;-69
2022/09/29 06:39:15;;;;;;;8.20;2.73;;;;;;;29.27;37.38;98656.66;4968968;28;20286;-67
2022/09/29 06:41:43;;;;;;;3.73;2.53;;;;;;;29.39;37.34;98648.47;4968648;28;20218;-73
2022/09/29 06:44:10;;;;;;;6.33;2.70;;;;;;;29.37;36.99;98649.97;4967999;28;20250;-69
2022/09/29 06:46:37;;;;;;;3.57;2.47;;;;;;;29.57;36.82;98649.94;4969617;28;20195;-68
2022/09/29 06:49:05;;;;;;;5.73;2.47;;;;;;;29.69;36.77;98652.69;4969128;28;20203;-68
2022/09/29 06:51:32;;;;;;;5.63;3.33;;;;;;;29.72;36.16;98646.50;4970654;28;20318;-71
2022/09/29 06:53:59;;;;;;;7.33;2.80;;;;;;;29.84;35.28;98649.25;4969538;28;20235;-72
2022/09/29 06:56:25;;;;;;;3.70;2.63;;;;;;;29.97;34.93;98645.38;4969934;28;20322;-68
2022/09/29 06:58:52;;;;;;;6.33;2.93;;;;;;;29.69;34.80;98630.78;4968838;28;20195;-69
2022/09/29 07:01:19;;;;;;;4.03;2.50;;;;;;;29.92;35.85;98645.59;4968350;28;20239;-69
2022/09/29 07:03:45;;;;;;;4.43;2.43;;;;;;;30.06;34.57;98651.56;4967854;28;20254;-69
2022/09/29 07:06:14;;;;;;;6.53;2.50;;;;;;;30.21;34.96;98650.09;4969834;28;20214;-71
2022/09/29 07:08:40;;;;;;;8.03;2.30;;;;;;;30.28;35.01;98664.78;4973348;28;20265;-67
2022/09/29 07:11:08;;;;;;;4.37;2.13;;;;;;;30.31;34.28;98658.63;4975745;28;20227;-67
2022/09/29 07:13:36;;;;;;;5.93;2.30;;;;;;;30.15;34.58;98665.94;4973201;28;20206;-69
2022/09/29 07:16:09;;;;;;;4.67;2.30;;;;;;;30.12;35.43;98663.06;4974803;28;20203;-68
2022/09/29 07:18:36;;;;;;;4.90;2.57;;;;;;;30.17;34.94;98668.34;4972430;28;20195;-72
2022/09/29 07:21:03;;;;;;;3.10;2.07;;;;;;;30.20;34.75;98671.19;4976605;28;20685;-70
2022/09/29 07:23:32;;;;;;;3.37;2.10;;;;;;;30.16;35.52;98662.06;4973909;28;20363;-69
2022/09/29 07:25:59;;;;;;;7.57;2.30;;;;;;;30.25;35.32;98662.72;4973581;28;20659;-73
2022/09/29 07:28:26;;;;;;;7.67;2.63;;;;;;;30.33;34.78;98661.81;4974920;28;20207;-68
2022/09/29 07:31:00;;;;;;;4.60;2.17;;;;;;;30.47;34.07;98665.00;4975350;28;20231;-68
2022/09/29 07:33:26;;;;;;;4.43;2.13;;;;;;;30.58;34.63;98663.34;4973900;28;20199;-68
2022/09/29 07:35:53;;;;;;;5.07;2.33;;;;;;;30.67;34.15;98661.28;4973550;28;20227;-67
2022/09/29 07:38:20;;;;;;;5.33;2.10;;;;;;;30.80;33.98;98651.91;4974373;28;20258;-68
2022/09/29 07:40:48;;;;;;;4.63;2.17;;;;;;;30.94;33.06;98660.53;4974101;28;20199;-70
2022/09/29 07:43:15;;;;;;;4.63;2.00;;;;;;;31.07;33.09;98653.84;4975233;28;20192;-69
2022/09/29 07:45:47;;;;;;;3.87;2.17;;;;;;;31.20;33.43;98662.81;4974767;28;20615;-67
2022/09/29 07:48:14;;;;;;;7.13;2.00;;;;;;;31.25;32.72;98660.66;4987478;28;20647;-67
2022/09/29 07:50:41;;;;;;;6.10;2.40;;;;;;;31.24;33.30;98678.25;4993116;28;20226;-70
2022/09/29 07:53:08;;;;;;;3.20;2.27;;;;;;;31.12;33.51;98672.00;4992493;28;20725;-71
2022/09/29 07:55:35;;;;;;;4.13;2.47;;;;;;;31.05;33.83;98667.13;4991653;28;20230;-69
2022/09/29 07:58:03;;;;;;;6.67;2.43;;;;;;;31.14;33.07;98675.19;4992712;28;20195;-67
2022/09/29 08:00:31;;;;;;;2.67;2.20;;;;;;;31.07;32.86;98678.53;4990740;28;20198;-70
2022/09/29 08:03:01;;;;;;;5.07;2.30;;;;;;;31.03;34.04;98683.13;4974550;28;20203;-68
2022/09/29 08:05:28;;;;;;;5.17;1.90;;;;;;;31.20;34.35;98691.03;4970721;28;20693;-69
2022/09/29 08:07:57;;;;;;;16.57;3.33;;;;;;;31.32;33.50;98682.00;4971797;28;20195;-67
2022/09/29 08:10:26;;;;;;;10.60;3.77;;;;;;;30.98;33.14;98682.56;4970827;28;20297;-68
2022/09/29 08:12:53;;;;;;;4.93;2.40;;;;;;;30.83;33.10;98689.59;4972685;28;20258;-70
2022/09/29 08:15:21;;;;;;;5.40;2.27;;;;;;;30.53;34.43;98688.28;4973182;28;20203;-69
2022/09/29 08:17:48;;;;;;;4.90;2.30;;;;;;;30.50;35.11;98688.19;4974752;28;20191;-69
2022/09/29 08:20:15;;;;;;;3.83;2.07;;;;;;;30.63;34.14;98687.81;4977959;28;20195;-66
2022/09/29 08:22:42;;;;;;;2.83;1.63;;;;;;;30.66;34.98;98692.59;4973269;28;20192;-68
2022/09/29 08:25:09;;;;;;;4.93;2.07;;;;;;;30.83;34.07;98692.34;4973868;28;20274;-65
2022/09/29 08:27:35;;;;;;;16.70;2.50;;;;;;;30.82;34.45;98693.50;4972534;28;20250;-70
2022/09/29 08:30:02;;;;;;;4.57;2.20;;;;;;;30.86;35.11;98685.38;4972609;28;20196;-66
2022/09/29 08:32:30;;;;;;;4.00;1.97;;;;;;;30.68;34.25;98690.31;4971955;28;20828;-70
2022/09/29 08:34:57;;;;;;;3.57;2.00;;;;;;;30.62;33.81;98701.88;4972425;28;20198;-66
2022/09/29 08:37:24;;;;;;;1.90;1.70;;;;;;;30.39;34.92;98687.84;4973892;28;20191;-65
2022/09/29 08:39:51;;;;;;;8.07;1.93;;;;;;;30.54;34.35;98684.38;4971485;28;20199;-68
2022/09/29 08:42:27;;;;;;;2.40;1.90;;;;;;;30.73;35.18;98686.53;4972151;28;20198;-70
2022/09/29 08:44:59;;;;;;;2.80;2.27;;;;;;;30.75;35.00;98687.81;4971408;28;20718;-67
2022/09/29 08:47:29;;;;;;;6.17;1.77;;;;;;;30.84;33.92;98688.47;4972263;28;20683;-64
2022/09/29 08:50:01;;;;;;;8.77;2.00;;;;;;;30.87;33.86;98682.25;4972575;28;20277;-67
2022/09/29 08:52:31;;;;;;;5.33;2.10;;;;;;;30.80;34.44;98687.56;4971212;28;20241;-63
2022/09/29 08:55:16;;;;;;;4.47;1.90;;;;;;;30.38;34.02;98685.47;4970115;28;20282;-64
2022/09/29 08:57:44;;;;;;;3.13;1.80;;;;;;;30.01;34.87;98690.09;4972262;28;20195;-63
2022/09/29 09:00:13;;;;;;;4.30;2.00;;;;;;;30.14;36.13;98688.22;4968658;28;20200;-64
2022/09/29 09:02:59;;;;;;;7.20;2.00;;;;;;;30.30;34.84;98689.94;4966108;28;20227;-67
2022/09/29 09:05:47;;;;;;;1.67;1.50;;;;;;;30.56;34.27;98687.59;4970791;28;20249;-66
2022/09/29 09:08:27;;;;;;;4.23;1.93;;;;;;;30.76;33.77;98681.19;4967031;28;20196;-64
2022/09/29 09:11:05;;;;;;;2.40;1.60;;;;;;;30.96;34.62;98684.88;4970540;28;20206;-66
2022/09/29 09:13:51;;;;;;;3.87;1.93;;;;;;;31.07;33.46;98686.75;4968378;28;20560;-63
2022/09/29 09:16:33;;;;;;;2.57;1.70;;;;;;;31.09;33.36;98673.50;4969569;28;20188;-64
2022/09/29 09:19:22;;;;;;;2.07;1.97;;;;;;;31.07;33.10;98677.75;4969914;28;20191;-64
2022/09/29 09:21:59;;;;;;;2.30;2.00;;;;;;;30.91;33.18;98674.16;4976450;28;20671;-62
2022/09/29 09:24:35;;;;;;;3.97;1.80;;;;;;;30.47;33.66;98678.72;4973159;28;20234;-63
2022/09/29 09:27:03;;;;;;;4.37;2.23;;;;;;;30.65;33.79;98671.81;4969853;28;20278;-63
2022/09/29 09:29:34;;;;;;;3.63;1.90;;;;;;;30.80;33.37;98671.09;4972562;28;20195;-65
2022/09/29 09:32:04;;;;;;;2.47;1.93;;;;;;;30.80;33.15;98665.63;4970495;28;20675;-63
2022/09/29 09:34:38;;;;;;;9.30;2.10;;;;;;;30.62;33.86;98661.50;4971145;28;20265;-69
2022/09/29 09:37:13;;;;;;;5.10;2.17;;;;;;;30.39;33.83;98656.91;4971106;28;20203;-64
2022/09/29 09:39:48;;;;;;;4.10;2.27;;;;;;;30.08;33.77;98649.25;4971274;28;20198;-62
2022/09/29 09:42:19;;;;;;;5.63;2.10;;;;;;;29.94;34.81;98651.56;4971403;28;20225;-69
2022/09/29 09:44:50;;;;;;;4.00;2.23;;;;;;;29.83;34.94;98646.84;4971163;28;20249;-66
2022/09/29 09:47:25;;;;;;;5.73;3.77;;;;;;;29.65;34.94;98632.59;4969339;28;20196;-63
2022/09/29 09:49:56;;;;;;;4.13;2.67;;;;;;;29.42;35.36;98630.59;4969852;28;20187;-69
2022/09/29 09:52:29;;;;;;;6.07;2.77;;;;;;;29.34;35.86;98635.03;4971272;28;20239;-70
2022/09/29 09:55:01;;;;;;;2.70;2.33;;;;;;;29.23;35.46;98645.59;4971296;28;20238;-63
2022/09/29 09:57:47;;;;;;;9.47;3.00;;;;;;;29.33;39.82;98638.09;4970528;28;20962;-65
2022/09/29 10:00:16;;;;;;;4.87;2.70;;;;;;;29.61;38.97;98639.91;4970000;28;20191;-62
2022/09/29 10:02:46;;;;;;;4.93;2.50;;;;;;;29.86;35.65;98636.03;4968698;28;20738;-66
2022/09/29 10:05:15;;;;;;;4.23;2.70;;;;;;;29.84;35.40;98641.03;4970019;28;20675;-67
2022/09/29 10:07:44;;;;;;;2.90;2.30;;;;;;;29.85;35.89;98644.59;4968439;28;20609;-67
2022/09/29 10:10:18;;;;;;;9.70;3.00;;;;;;;29.95;36.48;98655.06;4970268;28;20202;-63
2022/09/29 10:12:46;;;;;;;6.30;3.17;;;;;;;30.05;35.98;98660.88;4971303;28;20261;-63
2022/09/29 10:15:20;;;;;;;5.70;3.10;;;;;;;30.09;35.54;98658.28;4949663;28;20298;-61
2022/09/29 10:17:55;;;;;;;10.43;3.40;;;;;;;30.03;35.55;98656.91;4950511;28;20870;-69
2022/09/29 10:20:33;;;;;;;5.17;2.90;;;;;;;29.34;36.63;98656.91;4960000;28;20650;-65
2022/09/29 10:23:24;;;;;;;8.50;3.03;;;;;;;29.24;36.91;98657.34;4970739;28;20195;-66
2022/09/29 10:25:55;;;;;;;3.30;2.60;;;;;;;29.16;36.42;98650.03;4970897;28;20263;-62
2022/09/29 10:28:22;;;;;;;6.57;3.20;;;;;;;28.83;36.79;98657.41;4970833;28;20191;-68
2022/09/29 10:30:50;;;;;;;8.30;2.87;;;;;;;29.01;36.93;98653.41;4971008;28;20199;-63
2022/09/29 10:33:19;;;;;;;5.13;3.00;;;;;;;29.23;36.49;98649.47;4971817;28;20294;-60
2022/09/29 10:35:48;;;;;;;6.07;3.23;;;;;;;29.17;36.33;98651.63;4971041;28;20198;-61
2022/09/29 10:38:23;;;;;;;3.37;2.57;;;;;;;29.10;36.61;98649.44;4970837;28;20201;-70
2022/09/29 10:41:03;;;;;;;8.80;3.07;;;;;;;28.98;37.37;98649.38;4969058;28;20792;-62
2022/09/29 10:43:35;;;;;;;5.97;2.50;;;;;;;28.97;37.42;98641.50;4969231;28;20191;-66
2022/09/29 10:46:01;;;;;;;11.03;2.97;;;;;;;28.91;38.01;98632.69;4968173;28;20262;-62
2022/09/29 10:48:29;;;;;;;13.97;3.53;;;;;;;28.86;37.82;98640.31;4967075;28;20191;-61
2022/09/29 10:50:58;;;;;;;7.97;2.80;;;;;;;28.86;37.82;98626.63;4970186;28;20200;-61
2022/09/29 10:53:33;;;;;;;7.87;3.23;;;;;;;28.94;37.45;98632.03;4967884;28;20231;-61
2022/09/29 10:56:09;;;;;;;5.53;2.80;;;;;;;28.65;38.47;98623.13;4967805;28;20198;-62
2022/09/29 10:58:39;;;;;;;6.30;3.03;;;;;;;28.03;40.36;98628.56;4968726;28;20198;-65
2022/09/29 11:01:10;;;;;;;5.23;3.20;;;;;;;28.10;39.51;98622.56;4968451;28;20609;-61
2022/09/29 11:03:41;;;;;;;6.57;2.80;;;;;;;28.26;38.86;98615.38;4973559;28;20210;-61
2022/09/29 11:06:11;;;;;;;15.37;3.87;;;;;;;28.58;39.36;98617.41;4967127;28;20207;-65
2022/09/29 11:08:58;;;;;;;9.53;2.70;;;;;;;28.81;39.33;98615.91;4964677;28;20195;-62
2022/09/29 11:11:27;;;;;;;12.93;3.77;;;;;;;28.39;38.81;98603.38;4966757;28;20223;-62
2022/09/29 11:13:55;;;;;;;4.00;3.60;;;;;;;28.64;38.84;98599.66;4967758;28;20203;-66
2022/09/29 11:16:28;;;;;;;9.53;5.50;;;;;;;28.75;39.21;98598.13;4967416;28;20203;-63
2022/09/29 11:18:58;;;;;;;8.80;7.97;;;;;;;28.86;38.57;98602.03;4967963;28;20258;-61
2022/09/29 11:22:01;;;;;;;14.50;12.83;;;;;;;28.89;39.29;98593.16;4973463;28;20262;-61
2022/09/29 11:24:49;;;;;;;18.57;13.27;;;;;;;28.90;38.77;98587.34;4975336;28;20216;-62
2022/09/29 11:27:28;;;;;;;14.47;13.03;;;;;;;28.86;38.91;98582.88;4977001;28;20183;-65
2022/09/29 11:30:03;;;;;;;18.73;12.97;;;;;;;28.85;38.48;98592.22;4975404;28;20262;-63
2022/09/29 11:32:43;;;;;;;13.50;12.20;;;;;;;28.81;38.67;98591.31;4982586;28;20256;-64
2022/09/29 11:35:23;;;;;;;15.73;12.00;;;;;;;29.01;38.67;98594.03;4982802;28;20237;-63
2022/09/29 11:38:06;;;;;;;14.23;12.87;;;;;;;29.10;38.44;98586.53;4982837;28;20178;-63
2022/09/29 11:40:47;;;;;;;9.33;8.73;;;;;;;29.26;37.43;98591.38;4982527;28;20179;-63
2022/09/29 11:43:30;;;;;;;11.50;8.87;;;;;;;29.23;37.25;98595.53;4980485;28;20623;-63
2022/09/29 11:46:06;;;;;;;7.80;7.17;;;;;;;29.20;36.80;98590.78;4977336;28;20195;-64
2022/09/29 11:48:59;;;;;;;7.93;7.17;;;;;;;29.14;36.80;98594.84;4982107;28;20189;-64
2022/09/29 11:51:34;;;;;;;8.43;7.63;;;;;;;29.32;36.71;98582.59;4980357;28;20242;-63